Tk Rotterdam — A8RG8 — position and weather

sailwx.info

Track history (hours):
 
Tides and Currents Weather Stations Pressure Air Temp Water Temp Dewpoint Dewpoint Depression Visibility Wind Speed Wind Dir Waves Ship Positions

Tk Rotterdam

Last reported at 2017-Feb-27 11:15 UTC. Time now 2017-Feb-27 11:40 UTC.
Position N 54°07' E 012°05'.

Length 130 m; draft 5.1 m.

Type: Cargo ship. MMSI: 636014098.

Date/timePositionNaut miles runAvg speedWind from/ knotsBaromVisibWave heightAir tempDewpointWater temp
2017-Feb-27 11:15N 54°07' E 012°05'0 0.0
2017-Feb-27 10:32N 54°07' E 012°05'0 0.0
2017-Feb-27 09:29N 54°07' E 012°05'0 0.0
2017-Feb-27 08:25N 54°07' E 012°05'0 0.0
2017-Feb-27 05:32N 54°07' E 012°05'0 0.0
2017-Feb-27 04:29N 54°07' E 012°05'0 0.0
2017-Feb-27 02:12N 54°07' E 012°05'0 0.0
2017-Feb-27 01:33N 54°07' E 012°05'0 0.0
2017-Feb-27 00:32N 54°07' E 012°05'0 0.0
2017-Feb-26 23:32N 54°07' E 012°05'0 0.0
2017-Feb-26 21:21N 54°07' E 012°05'0 0.0
2017-Feb-26 18:26N 54°07' E 012°05'0 0.0
2017-Feb-26 16:27N 54°07' E 012°05'0 0.0
2017-Feb-26 15:33N 54°07' E 012°05'0 0.0
2017-Feb-26 14:32N 54°07' E 012°05'0 0.0
2017-Feb-26 12:31N 54°07' E 012°05'0 0.0
2017-Feb-26 11:12N 54°07' E 012°05'0 0.0
2017-Feb-26 08:29N 54°07' E 012°05'0 0.0
2017-Feb-26 07:19N 54°07' E 012°05'0 0.0
2017-Feb-26 06:34N 54°07' E 012°05'0 0.0
2017-Feb-26 03:32N 54°07' E 012°05'0 0.0
2017-Feb-25 21:28N 54°07' E 012°05'0 0.0
2017-Feb-25 20:34N 54°07' E 012°05'0 0.0
2017-Feb-25 19:33N 54°07' E 012°05'0 0.0
2017-Feb-25 18:08N 54°07' E 012°05'0 0.0
2017-Feb-25 10:30N 54°07' E 012°05'0 0.0
2017-Feb-25 06:31N 54°07' E 012°05'0 0.0
2017-Feb-25 05:33N 54°07' E 012°05'0 0.0
2017-Feb-25 03:33N 54°07' E 012°05'0 0.0
2017-Feb-25 02:32N 54°07' E 012°05'0 0.0
2017-Feb-25 01:31N 54°07' E 012°05'0 0.0
2017-Feb-24 20:28N 54°07' E 012°05'0 0.0
2017-Feb-24 19:34N 54°07' E 012°05'0 0.0
2017-Feb-24 18:33N 54°07' E 012°05'0 0.0
2017-Feb-24 17:23N 54°07' E 012°05'0 0.0
2017-Feb-24 12:17N 54°07' E 012°05'0 0.0
2017-Feb-24 10:07N 54°07' E 012°05'0 0.0
2017-Feb-24 09:33N 54°07' E 012°05'0 0.0
2017-Feb-24 08:15N 54°07' E 012°05'0 0.0
2017-Feb-24 06:13N 54°07' E 012°05'0 0.0
2017-Feb-24 02:29N 54°07' E 012°05'0 0.0
2017-Feb-24 01:32N 54°07' E 012°05'0 0.0
2017-Feb-23 23:34N 54°07' E 012°05'0 0.0
2017-Feb-23 21:29N 54°07' E 012°05'0 0.0
2017-Feb-23 20:31N 54°07' E 012°05'4 3.3
2017-Feb-23 19:16N 54°11' E 012°05'5 1.0
2017-Feb-23 14:33N 54°15' E 012°00'7 5.9
2017-Feb-23 13:24N 54°21' E 012°05'7 7.8
2017-Feb-23 12:31N 54°27' E 012°10'8 7.9
2017-Feb-23 11:34N 54°35' E 012°14'9 9.1
2017-Feb-23 10:34N 54°41' E 012°25'31 8.8
2017-Feb-23 07:04N 55°11' E 012°38'6 9.9
2017-Feb-23 06:27N 55°17' E 012°37'8 8.9
2017-Feb-23 05:34N 55°25' E 012°39'1010.5
2017-Feb-23 04:33N 55°35' E 012°42'1111.0
2017-Feb-23 03:34N 55°46' E 012°41'10 9.9
2017-Feb-23 02:34N 55°56' E 012°37'9 9.2
2017-Feb-23 01:34N 56°05' E 012°35'1111.1
2017-Feb-23 00:32N 56°12' E 012°19'73 8.1
2017-Feb-22 15:33N 57°19' E 011°29'1010.1
2017-Feb-22 14:32N 57°25' E 011°13'1010.6
2017-Feb-22 13:33N 57°26' E 010°54'9 9.4
2017-Feb-22 12:34N 57°26' E 010°36'0 0.1
2017-Feb-22 11:30N 57°26' E 010°36'0 0.0
2017-Feb-22 10:31N 57°26' E 010°36'0 0.0
2017-Feb-22 09:33N 57°26' E 010°36'0 0.0
2017-Feb-22 08:33N 57°26' E 010°36'2 1.8
2017-Feb-22 07:33N 57°25' E 010°39'2 1.5
2017-Feb-22 06:30N 57°26' E 010°41'6 6.2
2017-Feb-22 05:33N 57°32' E 010°44'8 7.4
2017-Feb-22 04:32N 57°39' E 010°45'6 6.2
2017-Feb-22 03:33N 57°45' E 010°45'7 7.0
2017-Feb-22 02:33N 57°47' E 010°33'398 8.6
2017-Feb-20 04:14N 52°36' E 003°16'64 9.3
2017-Feb-19 21:22N 51°40' E 002°27'910.8
2017-Feb-19 20:31N 51°33' E 002°17'1111.0
2017-Feb-19 19:33N 51°25' E 002°06'1111.1
2017-Feb-19 18:33N 51°17' E 001°54'1111.3
2017-Feb-19 17:33N 51°08' E 001°43'1111.4
2017-Feb-19 16:33N 50°59' E 001°32'1110.7
2017-Feb-19 15:33N 50°49' E 001°26'51 9.4
2017-Feb-19 10:11N 50°22' E 000°19'15 9.2
2017-Feb-19 08:32N 50°17' W 000°04'9 9.1
2017-Feb-19 07:33N 50°15' W 000°17'10 8.9
2017-Feb-19 06:26N 50°12' W 000°32'8 9.0
2017-Feb-19 05:33N 50°10' W 000°44'10 9.5
2017-Feb-19 04:33N 50°08' W 000°59'1010.3
2017-Feb-19 03:33N 50°05' W 001°14'1111.3
2017-Feb-19 02:33N 50°02' W 001°31'1212.0
2017-Feb-19 01:33N 49°59' W 001°49'1312.4
2017-Feb-19 00:32N 49°56' W 002°08'1611.6
2017-Feb-18 23:07N 49°52' W 002°33'810.8
2017-Feb-18 22:24N 49°49' W 002°45'910.1
2017-Feb-18 21:31N 49°46' W 002°57'9 9.3
2017-Feb-18 20:33N 49°41' W 003°09'10 9.5
2017-Feb-18 19:33N 49°36' W 003°21'10 9.4
2017-Feb-18 18:32N 49°31' W 003°34'25 6.4
2017-Feb-18 14:32N 49°16' W 004°06'47 9.4
2017-Feb-18 09:30N 48°56' W 005°11'1210.5
2017-Feb-18 08:19N 48°50' W 005°27'810.1
2017-Feb-18 07:34N 48°45' W 005°36'1410.7
2017-Feb-18 06:17N 48°33' W 005°46'810.7
2017-Feb-18 05:31N 48°26' W 005°52'  
Track history (hours):
 
Tides and Currents Weather Stations Pressure Air Temp Water Temp Dewpoint Dewpoint Depression Visibility Wind Speed Wind Dir Waves Ship Positions

Tk Rotterdam

Last reported at 2017-Feb-27 11:15 UTC. Time now 2017-Feb-27 11:40 UTC.
Position N 54°07' E 012°05'.

Length 130 m; draft 5.1 m.

Type: Cargo ship. MMSI: 636014098.

Date/timePositionNaut miles runAvg speedWind from/ knotsBaromVisibWave heightAir tempDewpointWater temp
2017-Feb-27 11:15N 54°07' E 012°05'0 0.0
2017-Feb-27 10:32N 54°07' E 012°05'0 0.0
2017-Feb-27 09:29N 54°07' E 012°05'0 0.0
2017-Feb-27 08:25N 54°07' E 012°05'0 0.0
2017-Feb-27 05:32N 54°07' E 012°05'0 0.0
2017-Feb-27 04:29N 54°07' E 012°05'0 0.0
2017-Feb-27 02:12N 54°07' E 012°05'0 0.0
2017-Feb-27 01:33N 54°07' E 012°05'0 0.0
2017-Feb-27 00:32N 54°07' E 012°05'0 0.0
2017-Feb-26 23:32N 54°07' E 012°05'0 0.0
2017-Feb-26 21:21N 54°07' E 012°05'0 0.0
2017-Feb-26 18:26N 54°07' E 012°05'0 0.0
2017-Feb-26 16:27N 54°07' E 012°05'0 0.0
2017-Feb-26 15:33N 54°07' E 012°05'0 0.0
2017-Feb-26 14:32N 54°07' E 012°05'0 0.0
2017-Feb-26 12:31N 54°07' E 012°05'0 0.0
2017-Feb-26 11:12N 54°07' E 012°05'0 0.0
2017-Feb-26 08:29N 54°07' E 012°05'0 0.0
2017-Feb-26 07:19N 54°07' E 012°05'0 0.0
2017-Feb-26 06:34N 54°07' E 012°05'0 0.0
2017-Feb-26 03:32N 54°07' E 012°05'0 0.0
2017-Feb-25 21:28N 54°07' E 012°05'0 0.0
2017-Feb-25 20:34N 54°07' E 012°05'0 0.0
2017-Feb-25 19:33N 54°07' E 012°05'0 0.0
2017-Feb-25 18:08N 54°07' E 012°05'0 0.0
2017-Feb-25 10:30N 54°07' E 012°05'0 0.0
2017-Feb-25 06:31N 54°07' E 012°05'0 0.0
2017-Feb-25 05:33N 54°07' E 012°05'0 0.0
2017-Feb-25 03:33N 54°07' E 012°05'0 0.0
2017-Feb-25 02:32N 54°07' E 012°05'0 0.0
2017-Feb-25 01:31N 54°07' E 012°05'0 0.0
2017-Feb-24 20:28N 54°07' E 012°05'0 0.0
2017-Feb-24 19:34N 54°07' E 012°05'0 0.0
2017-Feb-24 18:33N 54°07' E 012°05'0 0.0
2017-Feb-24 17:23N 54°07' E 012°05'0 0.0
2017-Feb-24 12:17N 54°07' E 012°05'0 0.0
2017-Feb-24 10:07N 54°07' E 012°05'0 0.0
2017-Feb-24 09:33N 54°07' E 012°05'0 0.0
2017-Feb-24 08:15N 54°07' E 012°05'0 0.0
2017-Feb-24 06:13N 54°07' E 012°05'0 0.0
2017-Feb-24 02:29N 54°07' E 012°05'0 0.0
2017-Feb-24 01:32N 54°07' E 012°05'0 0.0
2017-Feb-23 23:34N 54°07' E 012°05'0 0.0
2017-Feb-23 21:29N 54°07' E 012°05'0 0.0
2017-Feb-23 20:31N 54°07' E 012°05'4 3.3
2017-Feb-23 19:16N 54°11' E 012°05'5 1.0
2017-Feb-23 14:33N 54°15' E 012°00'7 5.9
2017-Feb-23 13:24N 54°21' E 012°05'7 7.8
2017-Feb-23 12:31N 54°27' E 012°10'8 7.9
2017-Feb-23 11:34N 54°35' E 012°14'9 9.1
2017-Feb-23 10:34N 54°41' E 012°25'31 8.8
2017-Feb-23 07:04N 55°11' E 012°38'6 9.9
2017-Feb-23 06:27N 55°17' E 012°37'8 8.9
2017-Feb-23 05:34N 55°25' E 012°39'1010.5
2017-Feb-23 04:33N 55°35' E 012°42'1111.0
2017-Feb-23 03:34N 55°46' E 012°41'10 9.9
2017-Feb-23 02:34N 55°56' E 012°37'9 9.2
2017-Feb-23 01:34N 56°05' E 012°35'1111.1
2017-Feb-23 00:32N 56°12' E 012°19'73 8.1
2017-Feb-22 15:33N 57°19' E 011°29'1010.1
2017-Feb-22 14:32N 57°25' E 011°13'1010.6
2017-Feb-22 13:33N 57°26' E 010°54'9 9.4
2017-Feb-22 12:34N 57°26' E 010°36'0 0.1
2017-Feb-22 11:30N 57°26' E 010°36'0 0.0
2017-Feb-22 10:31N 57°26' E 010°36'0 0.0
2017-Feb-22 09:33N 57°26' E 010°36'0 0.0
2017-Feb-22 08:33N 57°26' E 010°36'2 1.8
2017-Feb-22 07:33N 57°25' E 010°39'2 1.5
2017-Feb-22 06:30N 57°26' E 010°41'6 6.2
2017-Feb-22 05:33N 57°32' E 010°44'8 7.4
2017-Feb-22 04:32N 57°39' E 010°45'6 6.2
2017-Feb-22 03:33N 57°45' E 010°45'7 7.0
2017-Feb-22 02:33N 57°47' E 010°33'398 8.6
2017-Feb-20 04:14N 52°36' E 003°16'64 9.3
2017-Feb-19 21:22N 51°40' E 002°27'910.8
2017-Feb-19 20:31N 51°33' E 002°17'1111.0
2017-Feb-19 19:33N 51°25' E 002°06'1111.1
2017-Feb-19 18:33N 51°17' E 001°54'1111.3
2017-Feb-19 17:33N 51°08' E 001°43'1111.4
2017-Feb-19 16:33N 50°59' E 001°32'1110.7
2017-Feb-19 15:33N 50°49' E 001°26'51 9.4
2017-Feb-19 10:11N 50°22' E 000°19'15 9.2
2017-Feb-19 08:32N 50°17' W 000°04'9 9.1
2017-Feb-19 07:33N 50°15' W 000°17'10 8.9
2017-Feb-19 06:26N 50°12' W 000°32'8 9.0
2017-Feb-19 05:33N 50°10' W 000°44'10 9.5
2017-Feb-19 04:33N 50°08' W 000°59'1010.3
2017-Feb-19 03:33N 50°05' W 001°14'1111.3
2017-Feb-19 02:33N 50°02' W 001°31'1212.0
2017-Feb-19 01:33N 49°59' W 001°49'1312.4
2017-Feb-19 00:32N 49°56' W 002°08'1611.6
2017-Feb-18 23:07N 49°52' W 002°33'810.8
2017-Feb-18 22:24N 49°49' W 002°45'910.1
2017-Feb-18 21:31N 49°46' W 002°57'9 9.3
2017-Feb-18 20:33N 49°41' W 003°09'10 9.5
2017-Feb-18 19:33N 49°36' W 003°21'10 9.4
2017-Feb-18 18:32N 49°31' W 003°34'25 6.4
2017-Feb-18 14:32N 49°16' W 004°06'47 9.4
2017-Feb-18 09:30N 48°56' W 005°11'1210.5
2017-Feb-18 08:19N 48°50' W 005°27'810.1
2017-Feb-18 07:34N 48°45' W 005°36'1410.7
2017-Feb-18 06:17N 48°33' W 005°46'810.7
2017-Feb-18 05:31N 48°26' W 005°52'  

Dump ship's entire track history